sensor_id;sensor_type;location;lat;lon;timestamp;pressure;altitude;pressure_sealevel;temperature;humidity
60719;BME280;46567;51.660;5.824;2023-07-30T00:01:59;129400.0;;;190.6;99.0
60719;BME280;46567;51.660;5.824;2023-07-30T00:06:59;129410.0;;;190.6;99.0
60719;BME280;46567;51.660;5.824;2023-07-30T00:11:59;129420.0;;;190.6;99.0
60719;BME280;46567;51.660;5.824;2023-07-30T00:16:59;129430.0;;;190.6;99.0
60719;BME280;46567;51.660;5.824;2023-07-30T00:21:59;129440.0;;;190.6;99.0
60719;BME280;46567;51.660;5.824;2023-07-30T00:26:59;129450.0;;;190.6;99.0
60719;BME280;46567;51.660;5.824;2023-07-30T00:31:59;129460.0;;;190.6;99.0
60719;BME280;46567;51.660;5.824;2023-07-30T00:36:59;129480.0;;;190.6;99.5
60719;BME280;46567;51.660;5.824;2023-07-30T00:41:59;129480.0;;;190.6;99.5
60719;BME280;46567;51.660;5.824;2023-07-30T00:46:59;129490.0;;;190.6;99.5
60719;BME280;46567;51.660;5.824;2023-07-30T00:51:59;129520.0;;;190.6;99.5
60719;BME280;46567;51.660;5.824;2023-07-30T00:57:00;129540.0;;;190.6;99.5
60719;BME280;46567;51.660;5.824;2023-07-30T01:01:59;129540.0;;;190.6;99.5
60719;BME280;46567;51.660;5.824;2023-07-30T01:06:59;129550.0;;;190.6;99.5
60719;BME280;46567;51.660;5.824;2023-07-30T01:12:00;129550.0;;;190.6;100.0
60719;BME280;46567;51.660;5.824;2023-07-30T01:16:59;129560.0;;;190.6;100.0
60719;BME280;46567;51.660;5.824;2023-07-30T01:21:59;129570.0;;;190.6;100.0
60719;BME280;46567;51.660;5.824;2023-07-30T01:27:04;129580.0;;;190.6;100.0
60719;BME280;46567;51.660;5.824;2023-07-30T01:32:05;129600.0;;;190.6;100.0
60719;BME280;46567;51.660;5.824;2023-07-30T01:36:59;129600.0;;;190.6;100.0
60719;BME280;46567;51.660;5.824;2023-07-30T01:41:59;129620.0;;;190.6;100.0
60719;BME280;46567;51.660;5.824;2023-07-30T01:46:59;129640.0;;;190.6;100.0
60719;BME280;46567;51.660;5.824;2023-07-30T01:51:59;129640.0;;;190.6;100.0
60719;BME280;46567;51.660;5.824;2023-07-30T01:56:59;129650.0;;;190.6;100.0
60719;BME280;46567;51.660;5.824;2023-07-30T02:01:59;129640.0;;;190.6;100.0
60719;BME280;46567;51.660;5.824;2023-07-30T02:06:59;129660.0;;;190.6;100.0
60719;BME280;46567;51.660;5.824;2023-07-30T02:16:59;129660.0;;;190.6;100.0
60719;BME280;46567;51.660;5.824;2023-07-30T02:21:59;129660.0;;;190.6;100.0
60719;BME280;46567;51.660;5.824;2023-07-30T02:26:59;129660.0;;;190.6;100.0
60719;BME280;46567;51.660;5.824;2023-07-30T02:31:59;129650.0;;;190.6;100.0
60719;BME280;46567;51.660;5.824;2023-07-30T02:36:59;129640.0;;;190.6;100.0
60719;BME280;46567;51.660;5.824;2023-07-30T02:41:59;129640.0;;;190.6;100.0
60719;BME280;46567;51.660;5.824;2023-07-30T02:46:59;129640.0;;;190.6;100.0
60719;BME280;46567;51.660;5.824;2023-07-30T02:51:59;129650.0;;;190.6;100.0
60719;BME280;46567;51.660;5.824;2023-07-30T02:56:59;129630.0;;;190.6;100.0
60719;BME280;46567;51.660;5.824;2023-07-30T03:01:59;129630.0;;;190.6;100.0
60719;BME280;46567;51.660;5.824;2023-07-30T03:06:59;129620.0;;;190.6;100.0
60719;BME280;46567;51.660;5.824;2023-07-30T03:11:59;129630.0;;;190.6;100.0
60719;BME280;46567;51.660;5.824;2023-07-30T03:16:59;129630.0;;;190.6;100.0
60719;BME280;46567;51.660;5.824;2023-07-30T03:21:59;129640.0;;;190.6;100.0
60719;BME280;46567;51.660;5.824;2023-07-30T03:26:59;129620.0;;;190.6;100.0
60719;BME280;46567;51.660;5.824;2023-07-30T03:31:59;129610.0;;;190.6;100.0
60719;BME280;46567;51.660;5.824;2023-07-30T03:36:59;129600.0;;;190.6;100.0
60719;BME280;46567;51.660;5.824;2023-07-30T03:41:59;129590.0;;;190.6;100.0
60719;BME280;46567;51.660;5.824;2023-07-30T03:46:59;129580.0;;;190.6;100.0
60719;BME280;46567;51.660;5.824;2023-07-30T03:51:59;129570.0;;;190.6;100.0
60719;BME280;46567;51.660;5.824;2023-07-30T03:56:59;129560.0;;;190.6;100.0
60719;BME280;46567;51.660;5.824;2023-07-30T04:01:59;129570.0;;;190.6;100.0
60719;BME280;46567;51.660;5.824;2023-07-30T04:06:59;129540.0;;;190.6;100.0
60719;BME280;46567;51.660;5.824;2023-07-30T04:11:59;129540.0;;;190.6;100.0
60719;BME280;46567;51.660;5.824;2023-07-30T04:16:59;129530.0;;;190.6;100.0
60719;BME280;46567;51.660;5.824;2023-07-30T04:21:59;129530.0;;;190.6;100.0
60719;BME280;46567;51.660;5.824;2023-07-30T04:27:00;129530.0;;;190.6;100.0
60719;BME280;46567;51.660;5.824;2023-07-30T04:31:59;129530.0;;;190.6;100.0
60719;BME280;46567;51.660;5.824;2023-07-30T04:36:59;129500.0;;;190.6;100.0
60719;BME280;46567;51.660;5.824;2023-07-30T04:41:59;129500.0;;;190.6;100.0
60719;BME280;46567;51.660;5.824;2023-07-30T04:46:59;129500.0;;;190.6;100.0
60719;BME280;46567;51.660;5.824;2023-07-30T04:51:59;129490.0;;;190.6;100.0
60719;BME280;46567;51.660;5.824;2023-07-30T04:56:59;129470.0;;;190.6;100.0
60719;BME280;46567;51.660;5.824;2023-07-30T05:01:59;129460.0;;;190.6;100.0
60719;BME280;46567;51.660;5.824;2023-07-30T05:06:59;129460.0;;;190.6;100.0
60719;BME280;46567;51.660;5.824;2023-07-30T05:11:59;129450.0;;;190.6;100.0
60719;BME280;46567;51.660;5.824;2023-07-30T05:16:59;129430.0;;;190.6;100.0
60719;BME280;46567;51.660;5.824;2023-07-30T05:21:59;129410.0;;;190.6;100.0
60719;BME280;46567;51.660;5.824;2023-07-30T05:26:59;129400.0;;;190.6;100.0
60719;BME280;46567;51.660;5.824;2023-07-30T05:31:59;129400.0;;;190.6;100.0
60719;BME280;46567;51.660;5.824;2023-07-30T05:36:59;129410.0;;;190.6;100.0
60719;BME280;46567;51.660;5.824;2023-07-30T05:41:59;129390.0;;;190.6;100.0
60719;BME280;46567;51.660;5.824;2023-07-30T05:46:59;129390.0;;;190.6;100.0
60719;BME280;46567;51.660;5.824;2023-07-30T05:51:59;129390.0;;;190.6;100.0
60719;BME280;46567;51.660;5.824;2023-07-30T05:56:59;129370.0;;;190.6;100.0
60719;BME280;46567;51.660;5.824;2023-07-30T06:02:01;129370.0;;;190.6;100.0
60719;BME280;46567;51.660;5.824;2023-07-30T06:06:59;129350.0;;;190.6;100.0
60719;BME280;46567;51.660;5.824;2023-07-30T06:11:59;129350.0;;;190.6;100.0
60719;BME280;46567;51.660;5.824;2023-07-30T06:16:59;129340.0;;;190.6;100.0
60719;BME280;46567;51.660;5.824;2023-07-30T06:21:59;129320.0;;;190.6;100.0
60719;BME280;46567;51.660;5.824;2023-07-30T06:26:59;129300.0;;;190.6;100.0
60719;BME280;46567;51.660;5.824;2023-07-30T06:31:59;129280.0;;;190.6;100.0
60719;BME280;46567;51.660;5.824;2023-07-30T06:36:59;129270.0;;;190.6;100.0
60719;BME280;46567;51.660;5.824;2023-07-30T06:41:59;129280.0;;;190.6;100.0
60719;BME280;46567;51.660;5.824;2023-07-30T06:46:59;129280.0;;;190.6;100.0
60719;BME280;46567;51.660;5.824;2023-07-30T06:51:59;129280.0;;;190.6;100.0
60719;BME280;46567;51.660;5.824;2023-07-30T06:56:59;129270.0;;;190.6;100.0
60719;BME280;46567;51.660;5.824;2023-07-30T07:01:59;129250.0;;;190.6;100.0
60719;BME280;46567;51.660;5.824;2023-07-30T07:06:59;129220.0;;;190.6;100.0
60719;BME280;46567;51.660;5.824;2023-07-30T07:11:59;129170.0;;;190.6;100.0
60719;BME280;46567;51.660;5.824;2023-07-30T07:16:59;129130.0;;;190.6;100.0
60719;BME280;46567;51.660;5.824;2023-07-30T07:21:59;129100.0;;;190.6;100.0
60719;BME280;46567;51.660;5.824;2023-07-30T07:26:59;129060.0;;;190.6;100.0
60719;BME280;46567;51.660;5.824;2023-07-30T07:31:59;129040.0;;;190.6;99.0
60719;BME280;46567;51.660;5.824;2023-07-30T07:36:59;129030.0;;;190.6;98.5
60719;BME280;46567;51.660;5.824;2023-07-30T07:41:59;128960.0;;;190.6;98.5
60719;BME280;46567;51.660;5.824;2023-07-30T07:46:59;128920.0;;;190.6;95.5
60719;BME280;46567;51.660;5.824;2023-07-30T07:51:59;128930.0;;;190.6;94.5
60719;BME280;46567;51.660;5.824;2023-07-30T07:56:59;128940.0;;;190.6;95.0
60719;BME280;46567;51.660;5.824;2023-07-30T08:01:59;128910.0;;;190.6;94.5
60719;BME280;46567;51.660;5.824;2023-07-30T08:06:59;128890.0;;;190.6;93.5
60719;BME280;46567;51.660;5.824;2023-07-30T08:11:59;128900.0;;;190.6;92.5
60719;BME280;46567;51.660;5.824;2023-07-30T08:16:59;128910.0;;;190.6;92.0
60719;BME280;46567;51.660;5.824;2023-07-30T08:21:59;128920.0;;;190.6;92.0
60719;BME280;46567;51.660;5.824;2023-07-30T08:26:59;128910.0;;;190.6;92.5
60719;BME280;46567;51.660;5.824;2023-07-30T08:31:59;128880.0;;;190.6;92.0
60719;BME280;46567;51.660;5.824;2023-07-30T08:36:59;128830.0;;;190.6;91.5
60719;BME280;46567;51.660;5.824;2023-07-30T08:41:59;128850.0;;;190.6;90.0
60719;BME280;46567;51.660;5.824;2023-07-30T08:46:59;128860.0;;;190.6;90.0
60719;BME280;46567;51.660;5.824;2023-07-30T08:52:00;128860.0;;;190.6;89.5
60719;BME280;46567;51.660;5.824;2023-07-30T08:56:59;128840.0;;;190.6;89.5
60719;BME280;46567;51.660;5.824;2023-07-30T09:02:00;128840.0;;;190.6;89.0
60719;BME280;46567;51.660;5.824;2023-07-30T09:06:59;128860.0;;;190.6;88.5
60719;BME280;46567;51.660;5.824;2023-07-30T09:11:59;128890.0;;;190.6;88.5
60719;BME280;46567;51.660;5.824;2023-07-30T09:16:59;128890.0;;;190.6;89.0
60719;BME280;46567;51.660;5.824;2023-07-30T09:21:59;128880.0;;;190.6;87.0
60719;BME280;46567;51.660;5.824;2023-07-30T09:27:02;128880.0;;;190.6;86.5
60719;BME280;46567;51.660;5.824;2023-07-30T09:31:59;128860.0;;;190.6;87.5
60719;BME280;46567;51.660;5.824;2023-07-30T09:36:59;128840.0;;;190.6;86.5
60719;BME280;46567;51.660;5.824;2023-07-30T09:42:00;128800.0;;;190.6;87.5
60719;BME280;46567;51.660;5.824;2023-07-30T09:47:00;128740.0;;;190.6;85.0
60719;BME280;46567;51.660;5.824;2023-07-30T09:51:59;128700.0;;;190.6;84.5
60719;BME280;46567;51.660;5.824;2023-07-30T09:56:59;128660.0;;;190.6;84.5
60719;BME280;46567;51.660;5.824;2023-07-30T10:02:00;128580.0;;;190.6;83.0
60719;BME280;46567;51.660;5.824;2023-07-30T10:07:03;128560.0;;;190.6;80.0
60719;BME280;46567;51.660;5.824;2023-07-30T10:12:00;128600.0;;;190.6;79.5
60719;BME280;46567;51.660;5.824;2023-07-30T10:17:00;128630.0;;;190.6;79.5
60719;BME280;46567;51.660;5.824;2023-07-30T10:22:19;128670.0;;;190.6;81.0
60719;BME280;46567;51.660;5.824;2023-07-30T10:27:06;128740.0;;;190.6;82.0
60719;BME280;46567;51.660;5.824;2023-07-30T10:31:59;128830.0;;;190.6;83.5
60719;BME280;46567;51.660;5.824;2023-07-30T10:36:59;128980.0;;;190.6;83.5
60719;BME280;46567;51.660;5.824;2023-07-30T10:41:59;129130.0;;;190.6;85.5
60719;BME280;46567;51.660;5.824;2023-07-30T10:47:00;129260.0;;;190.6;88.5
60719;BME280;46567;51.660;5.824;2023-07-30T10:51:59;129320.0;;;190.6;91.0
60719;BME280;46567;51.660;5.824;2023-07-30T10:56:59;129390.0;;;190.6;91.0
60719;BME280;46567;51.660;5.824;2023-07-30T11:01:59;129420.0;;;190.6;92.0
60719;BME280;46567;51.660;5.824;2023-07-30T11:06:59;129420.0;;;190.6;95.0
60719;BME280;46567;51.660;5.824;2023-07-30T11:11:59;129350.0;;;190.6;97.0
60719;BME280;46567;51.660;5.824;2023-07-30T11:16:59;129250.0;;;190.6;99.0
60719;BME280;46567;51.660;5.824;2023-07-30T11:21:59;129130.0;;;190.6;98.5
60719;BME280;46567;51.660;5.824;2023-07-30T11:27:00;129060.0;;;190.6;98.0
60719;BME280;46567;51.660;5.824;2023-07-30T11:31:59;128940.0;;;190.6;98.5
60719;BME280;46567;51.660;5.824;2023-07-30T11:36:59;128840.0;;;190.6;95.5
60719;BME280;46567;51.660;5.824;2023-07-30T11:41:59;128770.0;;;190.6;93.0
60719;BME280;46567;51.660;5.824;2023-07-30T11:46:59;128730.0;;;190.6;88.0
60719;BME280;46567;51.660;5.824;2023-07-30T11:52:04;128680.0;;;190.6;88.0
60719;BME280;46567;51.660;5.824;2023-07-30T11:56:59;128640.0;;;190.6;87.0
60719;BME280;46567;51.660;5.824;2023-07-30T12:01:59;128570.0;;;190.6;83.5
60719;BME280;46567;51.660;5.824;2023-07-30T12:07:00;128550.0;;;190.6;81.0
60719;BME280;46567;51.660;5.824;2023-07-30T12:12:01;128520.0;;;190.6;80.0
60719;BME280;46567;51.660;5.824;2023-07-30T12:16:59;128470.0;;;190.6;79.5
60719;BME280;46567;51.660;5.824;2023-07-30T12:21:59;128420.0;;;190.6;77.5
60719;BME280;46567;51.660;5.824;2023-07-30T12:26:59;128400.0;;;190.6;72.5
60719;BME280;46567;51.660;5.824;2023-07-30T12:31:59;128380.0;;;190.6;68.5
60719;BME280;46567;51.660;5.824;2023-07-30T12:36:59;128420.0;;;190.6;66.5
60719;BME280;46567;51.660;5.824;2023-07-30T12:41:59;128440.0;;;190.6;65.5
60719;BME280;46567;51.660;5.824;2023-07-30T12:46:59;128460.0;;;190.6;67.0
60719;BME280;46567;51.660;5.824;2023-07-30T12:51:59;128460.0;;;190.6;65.0
60719;BME280;46567;51.660;5.824;2023-07-30T12:56:59;128490.0;;;190.6;65.0
60719;BME280;46567;51.660;5.824;2023-07-30T13:01:59;128530.0;;;190.6;64.5
60719;BME280;46567;51.660;5.824;2023-07-30T13:06:59;128540.0;;;190.6;65.5
60719;BME280;46567;51.660;5.824;2023-07-30T13:11:59;128540.0;;;190.6;64.5
60719;BME280;46567;51.660;5.824;2023-07-30T13:16:59;128510.0;;;190.6;64.0
60719;BME280;46567;51.660;5.824;2023-07-30T13:21:59;128470.0;;;190.6;62.5
60719;BME280;46567;51.660;5.824;2023-07-30T13:26:59;128490.0;;;190.6;62.0
60719;BME280;46567;51.660;5.824;2023-07-30T13:31:59;128510.0;;;190.6;63.5
60719;BME280;46567;51.660;5.824;2023-07-30T13:36:59;128510.0;;;190.6;64.0
60719;BME280;46567;51.660;5.824;2023-07-30T13:41:59;128500.0;;;190.6;63.5
60719;BME280;46567;51.660;5.824;2023-07-30T13:46:59;128470.0;;;190.6;62.5
60719;BME280;46567;51.660;5.824;2023-07-30T13:51:59;128410.0;;;190.6;62.5
60719;BME280;46567;51.660;5.824;2023-07-30T13:57:02;128330.0;;;190.6;61.5
60719;BME280;46567;51.660;5.824;2023-07-30T14:01:59;128280.0;;;190.6;58.5
60719;BME280;46567;51.660;5.824;2023-07-30T14:06:59;128270.0;;;190.6;57.5
60719;BME280;46567;51.660;5.824;2023-07-30T14:11:59;128220.0;;;190.6;58.0
60719;BME280;46567;51.660;5.824;2023-07-30T14:16:59;128200.0;;;190.6;56.0
60719;BME280;46567;51.660;5.824;2023-07-30T14:21:59;128180.0;;;190.6;54.5
60719;BME280;46567;51.660;5.824;2023-07-30T14:26:59;128160.0;;;190.6;53.5
60719;BME280;46567;51.660;5.824;2023-07-30T14:31:59;128170.0;;;190.6;53.5
60719;BME280;46567;51.660;5.824;2023-07-30T14:36:59;128190.0;;;190.6;53.5
60719;BME280;46567;51.660;5.824;2023-07-30T14:41:59;128230.0;;;190.6;53.5
60719;BME280;46567;51.660;5.824;2023-07-30T14:46:59;128250.0;;;190.6;53.5
60719;BME280;46567;51.660;5.824;2023-07-30T14:51:59;128280.0;;;190.6;53.5
60719;BME280;46567;51.660;5.824;2023-07-30T14:56:59;128330.0;;;190.6;54.5
60719;BME280;46567;51.660;5.824;2023-07-30T15:01:59;128370.0;;;190.6;56.5
60719;BME280;46567;51.660;5.824;2023-07-30T15:06:59;128340.0;;;190.6;57.0
60719;BME280;46567;51.660;5.824;2023-07-30T15:11:59;128310.0;;;190.6;56.5
60719;BME280;46567;51.660;5.824;2023-07-30T15:16:59;128250.0;;;190.6;56.5
60719;BME280;46567;51.660;5.824;2023-07-30T15:21:59;128170.0;;;190.6;57.5
60719;BME280;46567;51.660;5.824;2023-07-30T15:26:59;128080.0;;;190.6;56.0
60719;BME280;46567;51.660;5.824;2023-07-30T15:32:01;128030.0;;;190.6;55.5
60719;BME280;46567;51.660;5.824;2023-07-30T15:36:59;127990.0;;;190.6;53.5
60719;BME280;46567;51.660;5.824;2023-07-30T15:41:59;127970.0;;;190.6;51.5
60719;BME280;46567;51.660;5.824;2023-07-30T15:46:59;127980.0;;;190.6;52.0
60719;BME280;46567;51.660;5.824;2023-07-30T15:51:59;128010.0;;;190.6;50.5
60719;BME280;46567;51.660;5.824;2023-07-30T15:56:59;128090.0;;;190.6;51.0
60719;BME280;46567;51.660;5.824;2023-07-30T16:01:59;128110.0;;;190.6;52.5
60719;BME280;46567;51.660;5.824;2023-07-30T16:06:59;128140.0;;;190.6;53.0
60719;BME280;46567;51.660;5.824;2023-07-30T16:11:59;128170.0;;;190.6;53.5
60719;BME280;46567;51.660;5.824;2023-07-30T16:16:59;128200.0;;;190.6;54.5
60719;BME280;46567;51.660;5.824;2023-07-30T16:21:59;128240.0;;;190.6;54.5
60719;BME280;46567;51.660;5.824;2023-07-30T16:26:59;128270.0;;;190.6;53.0
60719;BME280;46567;51.660;5.824;2023-07-30T16:31:59;128310.0;;;190.6;53.5
60719;BME280;46567;51.660;5.824;2023-07-30T16:36:59;128330.0;;;190.6;53.5
60719;BME280;46567;51.660;5.824;2023-07-30T16:41:59;128350.0;;;190.6;53.0
60719;BME280;46567;51.660;5.824;2023-07-30T16:46:59;128390.0;;;190.6;53.0
60719;BME280;46567;51.660;5.824;2023-07-30T16:51:59;128440.0;;;190.6;53.0
60719;BME280;46567;51.660;5.824;2023-07-30T16:56:59;128470.0;;;190.6;54.0
60719;BME280;46567;51.660;5.824;2023-07-30T17:01:59;128500.0;;;190.6;54.5
60719;BME280;46567;51.660;5.824;2023-07-30T17:06:59;128540.0;;;190.6;54.5
60719;BME280;46567;51.660;5.824;2023-07-30T17:11:59;128580.0;;;190.6;55.5
60719;BME280;46567;51.660;5.824;2023-07-30T17:16:59;128630.0;;;190.6;56.5
60719;BME280;46567;51.660;5.824;2023-07-30T17:21:59;128680.0;;;190.6;58.0
60719;BME280;46567;51.660;5.824;2023-07-30T17:26:59;128730.0;;;190.6;60.5
60719;BME280;46567;51.660;5.824;2023-07-30T17:31:59;128800.0;;;190.6;63.5
60719;BME280;46567;51.660;5.824;2023-07-30T17:36:59;128870.0;;;190.6;67.0
60719;BME280;46567;51.660;5.824;2023-07-30T17:41:59;128970.0;;;190.6;69.0
60719;BME280;46567;51.660;5.824;2023-07-30T17:46:59;129060.0;;;190.6;72.5
60719;BME280;46567;51.660;5.824;2023-07-30T17:51:59;129100.0;;;190.6;75.0
60719;BME280;46567;51.660;5.824;2023-07-30T17:56:59;129150.0;;;190.6;77.0
60719;BME280;46567;51.660;5.824;2023-07-30T18:01:59;129210.0;;;190.6;79.5
60719;BME280;46567;51.660;5.824;2023-07-30T18:07:00;129250.0;;;190.6;81.5
60719;BME280;46567;51.660;5.824;2023-07-30T18:11:59;129270.0;;;190.6;83.0
60719;BME280;46567;51.660;5.824;2023-07-30T18:16:59;129280.0;;;190.6;84.5
60719;BME280;46567;51.660;5.824;2023-07-30T18:21:59;129310.0;;;190.6;85.0
60719;BME280;46567;51.660;5.824;2023-07-30T18:26:59;129320.0;;;190.6;86.0
60719;BME280;46567;51.660;5.824;2023-07-30T18:32:04;129320.0;;;190.6;87.0
60719;BME280;46567;51.660;5.824;2023-07-30T18:36:59;129320.0;;;190.6;88.5
60719;BME280;46567;51.660;5.824;2023-07-30T18:41:59;129330.0;;;190.6;88.5
60719;BME280;46567;51.660;5.824;2023-07-30T18:46:59;129350.0;;;190.6;89.0
60719;BME280;46567;51.660;5.824;2023-07-30T18:51:59;129370.0;;;190.6;90.0
60719;BME280;46567;51.660;5.824;2023-07-30T18:56:59;129380.0;;;190.6;91.0
60719;BME280;46567;51.660;5.824;2023-07-30T19:01:59;129400.0;;;190.6;92.0
60719;BME280;46567;51.660;5.824;2023-07-30T19:06:59;129400.0;;;190.6;92.5
60719;BME280;46567;51.660;5.824;2023-07-30T19:11:59;129400.0;;;190.6;93.5
60719;BME280;46567;51.660;5.824;2023-07-30T19:16:59;129410.0;;;190.6;94.0
60719;BME280;46567;51.660;5.824;2023-07-30T19:21:59;129410.0;;;190.6;94.5
60719;BME280;46567;51.660;5.824;2023-07-30T19:26:59;129410.0;;;190.6;95.5
60719;BME280;46567;51.660;5.824;2023-07-30T19:36:59;129410.0;;;190.6;96.0
60719;BME280;46567;51.660;5.824;2023-07-30T19:41:59;129420.0;;;190.6;96.5
60719;BME280;46567;51.660;5.824;2023-07-30T19:46:59;129420.0;;;190.6;97.0
60719;BME280;46567;51.660;5.824;2023-07-30T19:51:59;129430.0;;;190.6;97.5
60719;BME280;46567;51.660;5.824;2023-07-30T19:56:59;129430.0;;;190.6;98.0
60719;BME280;46567;51.660;5.824;2023-07-30T20:01:59;129430.0;;;190.6;98.5
60719;BME280;46567;51.660;5.824;2023-07-30T20:06:59;129440.0;;;190.6;99.0
60719;BME280;46567;51.660;5.824;2023-07-30T20:11:59;129430.0;;;190.6;99.5
60719;BME280;46567;51.660;5.824;2023-07-30T20:16:59;129440.0;;;190.6;99.5
60719;BME280;46567;51.660;5.824;2023-07-30T20:21:59;129450.0;;;190.6;100.0
60719;BME280;46567;51.660;5.824;2023-07-30T20:26:59;129440.0;;;190.6;100.0
60719;BME280;46567;51.660;5.824;2023-07-30T20:31:59;129440.0;;;190.6;100.0
60719;BME280;46567;51.660;5.824;2023-07-30T20:36:59;129470.0;;;190.6;100.0
60719;BME280;46567;51.660;5.824;2023-07-30T20:41:59;129490.0;;;190.6;100.0
60719;BME280;46567;51.660;5.824;2023-07-30T20:46:59;129510.0;;;190.6;100.0
60719;BME280;46567;51.660;5.824;2023-07-30T20:51:59;129510.0;;;190.6;100.0
60719;BME280;46567;51.660;5.824;2023-07-30T20:56:59;129510.0;;;190.6;100.0
60719;BME280;46567;51.660;5.824;2023-07-30T21:01:59;129510.0;;;190.6;100.0
60719;BME280;46567;51.660;5.824;2023-07-30T21:06:59;129520.0;;;190.6;100.0
60719;BME280;46567;51.660;5.824;2023-07-30T21:11:59;129550.0;;;190.6;100.0
60719;BME280;46567;51.660;5.824;2023-07-30T21:16:59;129540.0;;;190.6;100.0
60719;BME280;46567;51.660;5.824;2023-07-30T21:21:59;129530.0;;;190.6;100.0
60719;BME280;46567;51.660;5.824;2023-07-30T21:26:59;129550.0;;;190.6;100.0
60719;BME280;46567;51.660;5.824;2023-07-30T21:31:59;129550.0;;;190.6;100.0
60719;BME280;46567;51.660;5.824;2023-07-30T21:36:59;129550.0;;;190.6;100.0
60719;BME280;46567;51.660;5.824;2023-07-30T21:46:59;129550.0;;;190.6;100.0
60719;BME280;46567;51.660;5.824;2023-07-30T21:51:59;129550.0;;;190.6;100.0
60719;BME280;46567;51.660;5.824;2023-07-30T21:56:59;129550.0;;;190.6;100.0
60719;BME280;46567;51.660;5.824;2023-07-30T22:01:59;129540.0;;;190.6;100.0
60719;BME280;46567;51.660;5.824;2023-07-30T22:06:59;129540.0;;;190.6;100.0
60719;BME280;46567;51.660;5.824;2023-07-30T22:11:59;129530.0;;;190.6;100.0
60719;BME280;46567;51.660;5.824;2023-07-30T22:16:59;129530.0;;;190.6;100.0
60719;BME280;46567;51.660;5.824;2023-07-30T22:21:59;129520.0;;;190.6;100.0
60719;BME280;46567;51.660;5.824;2023-07-30T22:26:59;129500.0;;;190.6;100.0
60719;BME280;46567;51.660;5.824;2023-07-30T22:31:59;129530.0;;;190.6;100.0
60719;BME280;46567;51.660;5.824;2023-07-30T22:36:59;129520.0;;;190.6;100.0
60719;BME280;46567;51.660;5.824;2023-07-30T22:41:59;129510.0;;;190.6;100.0
60719;BME280;46567;51.660;5.824;2023-07-30T22:46:59;129520.0;;;190.6;100.0
60719;BME280;46567;51.660;5.824;2023-07-30T22:51:59;129530.0;;;190.6;100.0
60719;BME280;46567;51.660;5.824;2023-07-30T22:56:59;129510.0;;;190.6;100.0
60719;BME280;46567;51.660;5.824;2023-07-30T23:06:59;129480.0;;;190.6;100.0
60719;BME280;46567;51.660;5.824;2023-07-30T23:11:59;129470.0;;;190.6;100.0
60719;BME280;46567;51.660;5.824;2023-07-30T23:16:59;129440.0;;;190.6;100.0
60719;BME280;46567;51.660;5.824;2023-07-30T23:21:59;129430.0;;;190.6;100.0
60719;BME280;46567;51.660;5.824;2023-07-30T23:26:59;129400.0;;;190.6;100.0
60719;BME280;46567;51.660;5.824;2023-07-30T23:31:59;129390.0;;;190.6;100.0
60719;BME280;46567;51.660;5.824;2023-07-30T23:36:59;129400.0;;;190.6;100.0
60719;BME280;46567;51.660;5.824;2023-07-30T23:41:59;129370.0;;;190.6;100.0
60719;BME280;46567;51.660;5.824;2023-07-30T23:46:59;129360.0;;;190.6;100.0
60719;BME280;46567;51.660;5.824;2023-07-30T23:51:59;129340.0;;;190.6;100.0
60719;BME280;46567;51.660;5.824;2023-07-30T23:56:59;129330.0;;;190.6;100.0
